Garden City, Iowa
Current Conditions -  °F | °C
As of 9:35 PM on Saturday 22 Nov 2014 (Local Time) from KIFA Reporting Station
Overcast Overcast  
Wind Chill: 52°   Ceiling: 1700
Heat Index: 52°   Visibility: 7mi
Dew Point: 50°   Wind: 15mph
Humidity: 94%   Direction: 180°S
Pressure: 29.64"   Gusts: NA
Location:  42.25°N, 93.4°W
Report Text: KIFA 230335Z AUTO 18013KT 7SM SCT008 OVC017 11/10 A2964 RMK AO2 T01110101
Loading
Personal Weather Stations






























Interactive Weather Map New forecast layout! Learn more

10-Day Weather Forecast

Advertisements
Track Severe Weather on mobile